Time;durP1;ratioP1;P1;durP2;ratioP2;P2;SDS_P1;SDS_P2;PMS_P1;PMS_P2;Temp;Humidity;BMP_temperature;BMP_pressure;BME280_temperature;BME280_humidity;BME280_pressure;Samples;Min_cycle;Max_cycle;Signal;HPM_P1;HPM_P2
2022/01/26 00:08:28;;;;;;;44.25;21.05;;;;;;;-5.22;81.76;100523.11;1729866;83;21286;-78
2022/01/26 00:11:32;;;;;;;44.05;22.07;;;;;;;-5.24;81.84;100516.49;1729755;83;21307;-83
2022/01/26 00:14:43;;;;;;;37.45;19.85;;;;;;;-5.22;81.94;100517.31;1729911;83;21216;-79
2022/01/26 00:17:45;;;;;;;37.85;22.37;;;;;;;-5.21;82.08;100518.17;1729750;83;21319;-79
2022/01/26 00:20:58;;;;;;;35.03;20.40;;;;;;;-5.18;82.42;100512.67;1729851;83;21327;-83
2022/01/26 00:27:35;;;;;;;43.10;21.70;;;;;;;-5.02;82.32;100511.03;1729619;83;21538;-83
2022/01/26 00:40:51;;;;;;;36.08;19.23;;;;;;;-4.74;81.26;100499.03;1729767;83;21152;-83
2022/01/26 00:43:54;;;;;;;35.05;20.32;;;;;;;-4.73;81.21;100500.75;1722612;83;21327;-79
2022/01/26 00:46:59;;;;;;;34.18;19.30;;;;;;;-4.81;80.78;100496.25;1716978;83;21323;-83
2022/01/26 00:50:07;;;;;;;44.25;20.52;;;;;;;-4.92;80.69;100498.97;1717064;83;21327;-79
2022/01/26 00:53:11;;;;;;;35.73;20.23;;;;;;;-4.97;80.90;100501.00;1717197;83;21209;-82
2022/01/26 00:56:16;;;;;;;40.25;19.98;;;;;;;-4.93;81.25;100492.39;1717098;83;21311;-83
2022/01/26 00:59:22;;;;;;;30.92;18.62;;;;;;;-4.89;81.33;100484.16;1717153;83;21296;-83
2022/01/26 01:02:27;;;;;;;33.80;19.57;;;;;;;-4.91;80.93;100482.02;1717170;83;21307;-79
2022/01/26 01:05:38;;;;;;;34.95;19.77;;;;;;;-4.98;80.93;100471.27;1717105;83;21862;-83
2022/01/26 01:08:40;;;;;;;38.08;21.35;;;;;;;-5.00;81.09;100469.12;1717173;83;21307;-83
2022/01/26 01:11:46;;;;;;;40.20;18.90;;;;;;;-5.06;80.90;100469.42;1717111;83;21213;-79
2022/01/26 01:14:51;;;;;;;36.30;20.02;;;;;;;-5.12;80.97;100461.73;1717147;83;21331;-81
2022/01/26 01:18:12;;;;;;;35.85;18.67;;;;;;;-5.14;81.22;100466.25;1717247;83;21185;-79
2022/01/26 01:25:00;;;;;;;34.75;18.90;;;;;;;-5.19;81.52;100464.27;1716948;83;21327;-83
2022/01/26 01:30:56;;;;;;;34.13;17.57;;;;;;;-5.20;81.95;100447.41;1716908;83;21903;-80
2022/01/26 01:33:57;;;;;;;34.20;18.82;;;;;;;-5.20;81.83;100446.08;1717006;83;21291;-83
2022/01/26 01:37:06;;;;;;;36.20;18.57;;;;;;;-5.27;81.68;100444.66;1716204;83;21346;-83
2022/01/26 01:40:10;;;;;;;42.10;19.85;;;;;;;-5.31;81.82;100448.41;1715613;83;21295;-83
2022/01/26 01:43:16;;;;;;;33.30;18.32;;;;;;;-5.31;82.02;100441.73;1716139;83;21406;-84
2022/01/26 01:46:22;;;;;;;33.40;17.98;;;;;;;-5.28;82.06;100438.05;1715221;83;21307;-84
2022/01/26 01:49:28;;;;;;;35.48;19.57;;;;;;;-5.31;82.04;100443.07;1717111;83;21168;-82
2022/01/26 01:52:33;;;;;;;32.70;18.32;;;;;;;-5.32;82.28;100441.31;1715885;83;21332;-83
2022/01/26 01:55:38;;;;;;;36.17;18.27;;;;;;;-5.31;82.38;100448.88;1716507;83;21829;-79
2022/01/26 01:58:44;;;;;;;38.70;21.40;;;;;;;-5.29;82.60;100446.98;1716065;83;21311;-80
2022/01/26 02:01:50;;;;;;;37.78;19.55;;;;;;;-5.24;82.61;100440.48;1715653;83;21319;-78
2022/01/26 02:04:57;;;;;;;42.70;20.97;;;;;;;-5.14;82.65;100424.91;1715691;83;21781;-80
2022/01/26 02:08:02;;;;;;;37.03;20.70;;;;;;;-5.08;82.64;100431.75;1716964;83;21335;-83
2022/01/26 02:11:10;;;;;;;34.48;18.65;;;;;;;-5.02;82.46;100431.00;1716710;83;21776;-79
2022/01/26 02:14:24;;;;;;;44.55;20.85;;;;;;;-5.01;82.37;100434.05;1715844;83;21371;-83
2022/01/26 02:21:03;;;;;;;40.58;22.62;;;;;;;-5.04;82.11;100424.85;1715632;83;21880;-79
2022/01/26 02:58:34;;;;;;;33.23;18.65;;;;;;;-5.09;83.12;100420.22;1703225;83;21856;-80
2022/01/26 03:07:38;;;;;;;36.75;20.35;;;;;;;-5.18;83.02;100411.32;1702625;83;21849;-83
2022/01/26 03:13:37;;;;;;;37.48;21.00;;;;;;;-5.04;82.52;100406.66;1707330;84;21850;-82
2022/01/26 03:16:48;;;;;;;41.98;21.75;;;;;;;-5.03;82.61;100406.60;1707992;83;21241;-79
2022/01/26 03:19:54;;;;;;;35.45;19.87;;;;;;;-5.03;82.42;100401.27;1708595;84;21305;-83
2022/01/26 03:30:08;;;;;;;35.15;19.05;;;;;;;-4.97;82.10;100399.62;1708886;84;21317;-83
2022/01/26 03:33:13;;;;;;;41.75;19.92;;;;;;;-5.05;82.01;100396.45;1708736;84;21333;-82
2022/01/26 03:36:18;;;;;;;46.40;22.58;;;;;;;-5.11;81.97;100399.91;1707447;83;21249;-84
2022/01/26 03:39:25;;;;;;;38.42;22.37;;;;;;;-5.19;81.90;100396.27;1708759;84;21810;-82
2022/01/26 03:42:31;;;;;;;39.23;21.68;;;;;;;-5.28;81.99;100399.37;1707512;83;21218;-80
2022/01/26 03:45:37;;;;;;;39.60;20.05;;;;;;;-5.30;82.25;100398.60;1707608;83;21214;-83
2022/01/26 03:48:43;;;;;;;40.92;21.65;;;;;;;-5.29;82.44;100406.98;1707358;84;21802;-79
2022/01/26 03:51:48;;;;;;;47.40;22.95;;;;;;;-5.29;82.60;100401.66;1708008;83;21218;-79
2022/01/26 03:54:54;;;;;;;41.92;22.77;;;;;;;-5.34;82.72;100398.34;1708661;83;21190;-79
2022/01/26 03:58:00;;;;;;;37.17;19.32;;;;;;;-5.28;82.97;100394.05;1686113;85;21847;-82
2022/01/26 04:01:05;;;;;;;42.73;22.05;;;;;;;-5.17;82.96;100398.41;1685887;84;21849;-79
2022/01/26 04:04:12;;;;;;;46.80;21.73;;;;;;;-5.13;82.70;100385.29;1686035;85;21296;-82
2022/01/26 04:07:17;;;;;;;42.08;23.70;;;;;;;-5.13;82.44;100394.62;1686033;85;21841;-79
2022/01/26 04:10:42;;;;;;;47.80;23.55;;;;;;;-5.18;82.40;100390.84;1686943;85;21169;-83
2022/01/26 04:13:34;;;;;;;42.75;21.35;;;;;;;-5.21;82.35;100391.49;1690526;85;21157;-80
2022/01/26 04:16:40;;;;;;;44.18;22.30;;;;;;;-5.28;82.41;100390.05;1661144;86;21343;-80
2022/01/26 04:19:54;;;;;;;48.08;23.50;;;;;;;-5.33;82.60;100388.07;1690501;85;21295;-80
2022/01/26 04:23:07;;;;;;;45.45;22.48;;;;;;;-5.32;83.01;100389.80;1661247;86;21323;-81
2022/01/26 04:25:59;;;;;;;45.88;25.05;;;;;;;-5.24;83.26;100376.96;1675377;85;21356;-80
2022/01/26 04:29:10;;;;;;;46.55;23.45;;;;;;;-5.21;83.12;100385.69;1658152;86;21763;-79
2022/01/26 04:32:15;;;;;;;44.25;23.75;;;;;;;-5.19;83.01;100380.27;1703951;83;21327;-79
2022/01/26 04:35:20;;;;;;;48.48;25.17;;;;;;;-5.20;82.91;100382.55;1704662;83;21610;-80
2022/01/26 04:38:38;;;;;;;49.77;25.97;;;;;;;-5.24;82.76;100380.96;1689510;85;21306;-79
2022/01/26 04:41:48;;;;;;;42.73;22.45;;;;;;;-5.24;82.84;100374.30;1668456;86;21867;-79
2022/01/26 04:44:56;;;;;;;41.60;22.98;;;;;;;-5.24;82.85;100372.96;1706339;84;21263;-83
2022/01/26 04:47:56;;;;;;;48.48;25.25;;;;;;;-5.28;82.78;100369.57;1689351;83;21797;-80
2022/01/26 04:51:01;;;;;;;47.60;25.12;;;;;;;-5.29;83.05;100363.85;1703498;82;21233;-79
2022/01/26 04:54:07;;;;;;;55.45;27.90;;;;;;;-5.28;83.12;100363.38;1701427;84;21719;-79
2022/01/26 04:57:13;;;;;;;56.85;26.85;;;;;;;-5.29;83.21;100368.33;1705017;82;21783;-82
2022/01/26 05:00:19;;;;;;;59.85;28.50;;;;;;;-5.25;83.36;100365.44;1689892;83;21846;-79
2022/01/26 05:03:23;;;;;;;50.40;27.37;;;;;;;-5.26;83.21;100368.19;1704841;82;21375;-79
2022/01/26 05:06:29;;;;;;;44.83;25.30;;;;;;;-5.24;83.40;100374.30;1701295;84;21213;-80
2022/01/26 05:09:34;;;;;;;50.55;23.60;;;;;;;-5.20;83.53;100369.21;1701292;84;21189;-80
2022/01/26 05:12:41;;;;;;;42.85;24.18;;;;;;;-5.23;83.05;100377.34;1689374;85;21339;-79
2022/01/26 05:15:45;;;;;;;57.78;26.15;;;;;;;-5.32;82.95;100380.46;1689389;85;21726;-79
2022/01/26 05:18:53;;;;;;;50.40;24.20;;;;;;;-5.38;83.11;100373.63;1689515;85;21209;-83
2022/01/26 05:21:58;;;;;;;54.40;26.95;;;;;;;-5.42;83.29;100377.38;1739267;82;21314;-82
2022/01/26 05:25:03;;;;;;;52.90;25.00;;;;;;;-5.43;83.70;100376.52;1753563;82;21710;-78
2022/01/26 05:28:09;;;;;;;46.65;26.02;;;;;;;-5.43;83.74;100375.19;1720989;83;21762;-83
2022/01/26 05:31:14;;;;;;;56.98;26.70;;;;;;;-5.45;83.75;100370.88;1715180;82;21201;-79
2022/01/26 05:34:19;;;;;;;55.65;28.80;;;;;;;-5.43;83.93;100375.19;1701051;84;21328;-81
2022/01/26 05:37:23;;;;;;;55.43;28.55;;;;;;;-5.37;84.15;100371.34;1701481;84;21253;-82
2022/01/26 05:40:28;;;;;;;56.55;28.67;;;;;;;-5.24;84.26;100379.63;1702019;83;21309;-83
2022/01/26 05:43:33;;;;;;;55.67;28.38;;;;;;;-5.12;84.18;100382.19;1663281;85;21801;-82
2022/01/26 05:46:46;;;;;;;56.85;29.23;;;;;;;-5.00;84.02;100372.22;1670834;83;21937;-83
2022/01/26 05:49:50;;;;;;;53.25;28.65;;;;;;;-4.92;83.52;100370.91;1666380;85;21314;-79
2022/01/26 05:52:57;;;;;;;59.33;29.87;;;;;;;-4.87;83.34;100364.48;1689362;83;21302;-83
2022/01/26 05:56:02;;;;;;;54.53;27.55;;;;;;;-4.89;83.00;100366.76;1660160;84;22150;-78
2022/01/26 05:59:08;;;;;;;46.90;24.63;;;;;;;-4.86;82.99;100358.19;1661969;84;22122;-79
2022/01/26 06:02:12;;;;;;;62.00;30.57;;;;;;;-4.85;82.71;100359.44;1658599;85;21297;-78
2022/01/26 06:05:18;;;;;;;55.63;28.73;;;;;;;-4.87;82.60;100364.48;1650895;85;21204;-82
2022/01/26 06:08:24;;;;;;;60.90;30.80;;;;;;;-4.82;82.81;100369.11;1656323;84;22217;-83
2022/01/26 06:11:32;;;;;;;65.37;33.92;;;;;;;-4.74;82.42;100364.25;1654057;85;21896;-79
2022/01/26 06:14:38;;;;;;;72.85;34.58;;;;;;;-4.77;82.12;100362.59;1654738;84;21299;-80
2022/01/26 06:17:44;;;;;;;67.20;31.15;;;;;;;-4.75;82.19;100364.73;1625234;87;21953;-84
2022/01/26 06:20:49;;;;;;;57.30;30.90;;;;;;;-4.69;82.03;100366.21;1651339;84;21542;-80
2022/01/26 06:23:54;;;;;;;73.57;33.15;;;;;;;-4.67;82.01;100369.18;1649944;84;21317;-80
2022/01/26 06:27:00;;;;;;;66.67;33.60;;;;;;;-4.65;81.76;100369.13;1631424;86;21905;-84
2022/01/26 06:30:06;;;;;;;66.95;32.67;;;;;;;-4.65;81.66;100373.13;1622193;87;21822;-84
2022/01/26 06:33:12;;;;;;;62.78;32.75;;;;;;;-4.69;81.25;100364.88;1647437;84;21251;-85
2022/01/26 06:36:19;;;;;;;67.17;34.48;;;;;;;-4.70;81.49;100371.17;1634048;86;21634;-79
2022/01/26 06:39:25;;;;;;;72.95;34.00;;;;;;;-4.59;81.60;100362.60;1689153;83;21590;-83
2022/01/26 06:42:36;;;;;;;64.65;32.70;;;;;;;-4.53;81.25;100359.13;1686782;83;21216;-83
2022/01/26 06:52:30;;;;;;;53.87;27.93;;;;;;;-4.39;80.50;100359.27;1642519;85;21836;-78
2022/01/26 06:55:45;;;;;;;61.33;27.42;;;;;;;-4.30;80.38;100356.59;1654757;84;21247;-81
2022/01/26 06:59:01;;;;;;;54.10;28.00;;;;;;;-4.25;80.00;100353.68;1612438;85;21307;-80
2022/01/26 07:02:10;;;;;;;55.90;27.20;;;;;;;-4.26;79.70;100351.95;1652471;83;22275;-79
2022/01/26 07:05:18;;;;;;;53.85;25.37;;;;;;;-4.25;79.28;100352.34;1692193;83;21278;-78
2022/01/26 07:08:24;;;;;;;54.10;27.22;;;;;;;-4.21;79.00;100346.76;1698683;83;21717;-79
2022/01/26 07:11:29;;;;;;;55.38;27.90;;;;;;;-4.17;78.56;100348.80;1697584;83;21330;-80
2022/01/26 07:21:28;;;;;;;49.58;26.45;;;;;;;-3.50;77.92;100341.55;1700233;83;21235;-79
2022/01/26 07:24:35;;;;;;;40.67;20.60;;;;;;;-3.32;76.92;100336.50;1698235;83;21255;-81
2022/01/26 07:27:42;;;;;;;42.10;22.87;;;;;;;-3.09;75.78;100336.04;1694988;83;22119;-80
2022/01/26 07:30:47;;;;;;;39.65;20.17;;;;;;;-2.95;74.77;100336.58;1695582;83;21868;-80
2022/01/26 07:33:55;;;;;;;35.68;19.05;;;;;;;-2.71;73.96;100330.72;1693577;83;21393;-80
2022/01/26 07:37:05;;;;;;;31.60;18.30;;;;;;;-2.64;72.93;100337.42;1693750;83;21196;-80
2022/01/26 07:40:13;;;;;;;28.12;15.28;;;;;;;-2.66;72.14;100333.98;1693596;83;21326;-79
2022/01/26 07:43:22;;;;;;;30.45;15.60;;;;;;;-2.61;71.66;100337.25;1690274;83;21318;-81
2022/01/26 07:46:29;;;;;;;22.42;12.65;;;;;;;-2.68;71.23;100339.45;1693298;83;21447;-79
2022/01/26 07:49:35;;;;;;;24.10;13.83;;;;;;;-2.64;70.65;100338.76;1703247;82;21664;-81
2022/01/26 07:52:42;;;;;;;19.30;11.65;;;;;;;-2.80;69.93;100341.98;1701036;82;21382;-80
2022/01/26 07:55:49;;;;;;;24.85;12.18;;;;;;;-2.80;70.20;100337.97;1670204;84;21987;-80
2022/01/26 07:58:53;;;;;;;24.55;12.15;;;;;;;-2.85;69.75;100339.09;1669043;84;21448;-81
2022/01/26 08:01:57;;;;;;;18.17;10.00;;;;;;;-2.85;69.44;100341.77;1707171;82;21172;-79
2022/01/26 08:05:05;;;;;;;20.97;11.45;;;;;;;-2.83;69.34;100334.98;1706281;82;21308;-78
2022/01/26 08:08:11;;;;;;;21.35;11.03;;;;;;;-2.68;69.01;100338.55;1713708;82;22005;-81
2022/01/26 08:11:17;;;;;;;23.95;11.75;;;;;;;-2.49;68.49;100341.87;1709514;82;21380;-80
2022/01/26 08:14:23;;;;;;;20.27;11.53;;;;;;;-2.32;67.61;100344.38;1705526;82;21209;-80
2022/01/26 08:17:33;;;;;;;18.42;10.40;;;;;;;-2.24;67.27;100339.90;1706229;82;21295;-79
2022/01/26 08:21:07;;;;;;;21.62;10.40;;;;;;;-2.09;67.32;100334.06;1690369;82;21887;-81
2022/01/26 08:24:19;;;;;;;21.65;10.32;;;;;;;-2.09;66.17;100340.77;1702210;82;21614;-80
2022/01/26 08:27:33;;;;;;;24.00;11.68;;;;;;;-2.16;65.75;100331.39;1699666;82;22140;-81
2022/01/26 08:30:37;;;;;;;21.02;10.82;;;;;;;-2.29;65.61;100327.74;1701546;82;21329;-79
2022/01/26 08:33:48;;;;;;;22.30;11.22;;;;;;;-2.34;65.72;100330.70;1685087;82;21217;-81
2022/01/26 08:36:55;;;;;;;21.75;10.90;;;;;;;-2.44;65.75;100330.41;1668508;82;22034;-80
2022/01/26 08:40:03;;;;;;;19.57;11.30;;;;;;;-2.50;66.06;100330.75;1705278;82;21408;-82
2022/01/26 08:43:08;;;;;;;20.60;10.85;;;;;;;-2.45;66.40;100331.34;1703035;82;21440;-80
2022/01/26 08:46:13;;;;;;;20.62;10.40;;;;;;;-2.32;66.30;100333.66;1704438;82;21864;-82
2022/01/26 08:49:21;;;;;;;22.17;11.18;;;;;;;-2.24;65.95;100331.00;1704915;82;21318;-82
2022/01/26 08:52:26;;;;;;;19.50;11.50;;;;;;;-2.21;65.70;100330.34;1713216;82;21519;-82
2022/01/26 08:55:47;;;;;;;24.75;12.78;;;;;;;-2.21;65.38;100325.43;1701848;83;21350;-82
2022/01/26 08:59:15;;;;;;;20.80;11.30;;;;;;;-2.14;66.02;100328.98;1684943;83;21177;-80
2022/01/26 09:02:21;;;;;;;20.55;10.32;;;;;;;-1.84;65.50;100318.63;1702227;83;21197;-80
2022/01/26 09:05:31;;;;;;;19.55;11.20;;;;;;;-1.70;64.41;100321.30;1709065;82;21304;-81
2022/01/26 09:08:46;;;;;;;22.95;12.43;;;;;;;-1.65;64.31;100316.98;1713425;82;21207;-81
2022/01/26 09:11:51;;;;;;;19.62;11.33;;;;;;;-1.56;64.04;100317.73;1720152;82;21366;-81
2022/01/26 09:15:00;;;;;;;19.90;11.63;;;;;;;-1.43;63.96;100315.13;1709912;82;21442;-80
2022/01/26 09:18:07;;;;;;;20.57;11.97;;;;;;;-1.34;63.80;100311.84;1708591;82;21816;-80
2022/01/26 09:21:13;;;;;;;22.02;11.95;;;;;;;-1.29;63.20;100305.20;1711765;82;21318;-80
2022/01/26 09:24:18;;;;;;;18.40;10.88;;;;;;;-1.23;62.74;100308.44;1710504;82;22304;-82
2022/01/26 09:27:26;;;;;;;21.97;12.65;;;;;;;-1.27;62.36;100309.59;1709489;82;21320;-80
2022/01/26 09:30:31;;;;;;;21.70;11.68;;;;;;;-1.35;62.18;100304.27;1708592;82;21192;-80
2022/01/26 09:33:43;;;;;;;17.95;10.95;;;;;;;-1.29;62.90;100303.00;1712482;82;21906;-80
2022/01/26 09:37:16;;;;;;;17.80;11.25;;;;;;;-1.25;62.18;100302.33;1687921;83;21302;-81
2022/01/26 09:40:25;;;;;;;21.50;13.22;;;;;;;-1.10;62.72;100302.16;1683343;83;21370;-79
2022/01/26 09:43:32;;;;;;;15.55;9.68;;;;;;;-0.85;62.19;100296.02;1710824;83;21327;-78
2022/01/26 09:46:40;;;;;;;18.75;11.50;;;;;;;-0.57;61.39;100296.80;1709224;82;21355;-80
2022/01/26 09:49:46;;;;;;;18.30;11.55;;;;;;;-0.49;59.68;100291.76;1713148;82;21442;-81
2022/01/26 09:52:55;;;;;;;18.00;11.55;;;;;;;-0.58;59.79;100293.73;1703506;82;21197;-81
2022/01/26 09:56:03;;;;;;;21.45;12.50;;;;;;;-0.54;59.79;100292.08;1701214;83;21206;-81
2022/01/26 09:59:10;;;;;;;21.02;12.07;;;;;;;-0.58;59.54;100287.02;1703416;82;21613;-79
2022/01/26 10:02:18;;;;;;;19.45;11.48;;;;;;;-0.53;59.71;100280.35;1672906;84;21657;-79
2022/01/26 10:05:25;;;;;;;19.80;10.70;;;;;;;-0.48;59.30;100276.00;1703109;82;21279;-79
2022/01/26 10:15:34;;;;;;;16.17;10.32;;;;;;;-0.35;58.87;100276.02;1691475;82;21200;-81
2022/01/26 10:18:40;;;;;;;17.23;11.00;;;;;;;-0.39;59.45;100273.16;1702160;82;21375;-79
2022/01/26 10:21:58;;;;;;;17.05;10.03;;;;;;;-0.36;59.27;100270.27;1692157;82;21308;-78
2022/01/26 10:25:24;;;;;;;17.75;11.38;;;;;;;-0.36;59.38;100271.13;1706110;82;21827;-79
2022/01/26 10:28:31;;;;;;;17.77;11.68;;;;;;;-0.33;59.57;100267.34;1703960;82;21237;-85
2022/01/26 10:31:42;;;;;;;14.55;9.80;;;;;;;-0.32;59.05;100261.88;1706271;82;21358;-81
2022/01/26 10:34:56;;;;;;;17.75;10.30;;;;;;;-0.56;59.15;100260.92;1701700;82;21315;-81
2022/01/26 10:38:03;;;;;;;14.07;8.75;;;;;;;-0.61;59.42;100263.93;1704902;82;22372;-81
2022/01/26 10:41:10;;;;;;;20.08;11.10;;;;;;;-0.76;59.22;100263.62;1703471;82;21928;-82
2022/01/26 10:44:19;;;;;;;12.55;7.70;;;;;;;-0.91;59.66;100256.63;1705542;82;21340;-81
2022/01/26 10:47:46;;;;;;;17.73;9.73;;;;;;;-0.99;59.88;100261.64;1705588;83;21306;-83
2022/01/26 10:54:23;;;;;;;17.42;9.45;;;;;;;-1.38;61.00;100257.98;1687778;82;21208;-82
2022/01/26 10:57:27;;;;;;;17.57;9.38;;;;;;;-1.37;61.80;100258.36;1676684;82;21332;-82
2022/01/26 11:00:32;;;;;;;15.75;8.95;;;;;;;-1.31;61.96;100253.47;1703051;82;21854;-82
2022/01/26 11:03:38;;;;;;;19.82;10.55;;;;;;;-1.27;61.93;100256.81;1707062;82;21374;-83
2022/01/26 11:06:45;;;;;;;24.52;11.40;;;;;;;-1.35;61.86;100250.61;1699621;82;21176;-84
2022/01/26 11:09:54;;;;;;;25.10;12.07;;;;;;;-1.45;62.20;100253.52;1702484;82;21763;-82
2022/01/26 11:13:00;;;;;;;24.63;10.43;;;;;;;-1.46;62.53;100253.12;1699291;82;21345;-81
2022/01/26 11:16:23;;;;;;;30.77;13.38;;;;;;;-1.50;62.54;100256.99;1707896;82;21213;-80
2022/01/26 11:19:28;;;;;;;26.55;11.88;;;;;;;-1.58;62.85;100248.58;1702667;82;21428;-82
2022/01/26 11:22:34;;;;;;;36.80;13.18;;;;;;;-1.57;63.41;100238.22;1702715;82;21323;-81
2022/01/26 11:25:52;;;;;;;38.98;14.00;;;;;;;-1.62;63.58;100232.30;1705201;82;21382;-81
2022/01/26 11:28:58;;;;;;;31.65;14.25;;;;;;;-1.71;63.61;100232.42;1669526;84;21746;-81
2022/01/26 11:32:18;;;;;;;45.88;14.73;;;;;;;-1.72;64.28;100223.14;1679079;83;21250;-81
2022/01/26 11:35:20;;;;;;;40.28;14.70;;;;;;;-1.70;64.78;100218.52;1676836;85;21301;-82
2022/01/26 11:45:17;;;;;;;27.17;12.18;;;;;;;-1.71;64.91;100215.47;1700059;82;21641;-80
2022/01/26 11:48:32;;;;;;;35.78;13.20;;;;;;;-1.77;65.01;100214.06;1704073;82;21350;-81
2022/01/26 11:51:52;;;;;;;40.00;13.75;;;;;;;-1.84;64.96;100206.87;1698480;82;21311;-81
2022/01/26 11:54:59;;;;;;;36.73;13.93;;;;;;;-1.98;65.16;100210.08;1681531;83;21695;-82
2022/01/26 11:58:20;;;;;;;37.78;13.70;;;;;;;-2.02;65.91;100209.44;1681876;85;22512;-81
2022/01/26 12:01:30;;;;;;;22.63;10.53;;;;;;;-1.96;66.05;100205.50;1683831;85;21379;-81
2022/01/26 12:04:37;;;;;;;40.85;14.10;;;;;;;-2.08;66.00;100206.64;1681977;83;21486;-81
2022/01/26 12:07:41;;;;;;;38.10;13.30;;;;;;;-2.11;66.17;100204.19;1683227;85;21237;-81
2022/01/26 12:10:47;;;;;;;27.60;12.33;;;;;;;-2.19;66.20;100201.61;1680679;85;21181;-81
2022/01/26 12:13:53;;;;;;;28.62;11.75;;;;;;;-2.36;66.78;100203.52;1612255;86;21233;-83
2022/01/26 12:17:01;;;;;;;24.37;12.37;;;;;;;-2.35;67.70;100202.59;1653349;85;21308;-80
2022/01/26 12:34:24;;;;;;;20.27;10.90;;;;;;;-2.02;67.29;100197.38;1703918;83;21324;-79
2022/01/26 12:37:16;;;;;;;23.42;12.28;;;;;;;-1.93;67.31;100191.42;1679055;85;21332;-81
2022/01/26 12:43:57;;;;;;;21.30;12.45;;;;;;;-2.02;65.80;100197.38;1685078;85;20674;-81
2022/01/26 12:47:04;;;;;;;24.50;11.70;;;;;;;-2.19;65.37;100194.91;1686792;83;21325;-81
2022/01/26 12:50:10;;;;;;;22.52;11.33;;;;;;;-2.31;65.65;100197.88;1684227;85;21375;-81
2022/01/26 12:53:15;;;;;;;28.92;10.88;;;;;;;-2.40;65.60;100198.00;1690351;82;21937;-80
2022/01/26 12:56:21;;;;;;;30.77;14.30;;;;;;;-2.55;65.76;100194.06;1715439;82;21379;-79
2022/01/26 12:59:29;;;;;;;29.18;13.22;;;;;;;-2.65;66.77;100200.48;1712897;82;21851;-80
2022/01/26 13:02:34;;;;;;;29.77;13.03;;;;;;;-2.61;67.28;100207.37;1715517;83;21223;-81
2022/01/26 13:05:40;;;;;;;26.37;13.83;;;;;;;-2.60;67.27;100201.05;1712427;82;21746;-80
2022/01/26 13:08:59;;;;;;;28.07;13.05;;;;;;;-2.65;67.25;100200.48;1715409;83;21762;-79
2022/01/26 13:12:09;;;;;;;23.80;11.80;;;;;;;-2.71;67.42;100202.20;1710057;83;21881;-81
2022/01/26 13:15:24;;;;;;;11.18;8.10;;;;;;;-2.71;67.97;100196.37;1715330;83;21291;-81
2022/01/26 13:28:34;;;;;;;25.65;13.93;;;;;;;-2.74;68.92;100209.08;1713208;83;21185;-81
2022/01/26 13:32:38;;;;;;;25.88;13.00;;;;;;;-2.68;69.22;100216.27;1711760;82;21814;-80
2022/01/26 13:35:12;;;;;;;23.65;11.35;;;;;;;-2.65;69.30;100216.55;1703410;83;21327;-80
2022/01/26 13:38:31;;;;;;;24.37;12.45;;;;;;;-2.67;69.82;100212.63;1714604;83;21322;-80
2022/01/26 13:51:18;;;;;;;23.35;12.93;;;;;;;-2.87;71.00;100225.02;1709188;82;21291;-80
2022/01/26 13:57:48;;;;;;;23.00;12.23;;;;;;;-2.93;71.34;100228.93;1711051;83;21356;-80
2022/01/26 14:01:03;;;;;;;28.32;13.95;;;;;;;-2.92;71.36;100241.36;1703123;83;21175;-80
2022/01/26 14:04:05;;;;;;;23.00;12.98;;;;;;;-2.99;71.46;100236.00;1716243;83;21321;-80
2022/01/26 14:07:10;;;;;;;27.85;13.53;;;;;;;-3.00;71.58;100223.58;1716009;83;21286;-80
2022/01/26 14:10:17;;;;;;;27.02;13.25;;;;;;;-3.04;71.67;100236.76;1716359;83;21290;-80
2022/01/26 14:13:24;;;;;;;26.80;12.68;;;;;;;-3.09;72.23;100238.37;1715621;83;21297;-80
2022/01/26 14:16:37;;;;;;;29.37;14.70;;;;;;;-3.18;72.05;100234.91;1714021;83;21373;-78
2022/01/26 14:19:56;;;;;;;28.95;14.15;;;;;;;-3.32;72.45;100228.65;1714729;83;21754;-81
2022/01/26 14:25:56;;;;;;;33.58;16.07;;;;;;;-3.58;73.21;100237.70;1714787;83;22675;-81
2022/01/26 14:29:02;;;;;;;26.33;13.40;;;;;;;-3.70;73.70;100231.73;1716008;83;21615;-81
2022/01/26 14:32:27;;;;;;;22.20;11.80;;;;;;;-3.80;74.15;100230.55;1686165;85;21859;-79
2022/01/26 14:35:40;;;;;;;19.70;11.73;;;;;;;-3.88;74.80;100229.16;1685259;84;21394;-80
2022/01/26 14:55:51;;;;;;;26.90;14.20;;;;;;;-4.23;76.49;100235.62;1711846;83;21799;-80
2022/01/26 15:35:24;;;;;;;38.05;19.70;;;;;;;-4.92;80.08;100257.98;1709333;84;21224;-79
2022/01/26 16:07:54;;;;;;;37.42;18.85;;;;;;;-4.83;80.35;100272.66;1696080;84;21324;-78
2022/01/26 16:21:03;;;;;;;32.70;18.15;;;;;;;-4.75;80.40;100276.66;1696509;84;21343;-78
2022/01/26 16:52:27;;;;;;;53.42;25.95;;;;;;;-4.95;81.73;100280.81;1696859;84;21728;-79
2022/01/26 17:55:12;;;;;;;57.70;28.32;;;;;;;-4.52;81.51;100310.59;1696797;84;21308;-80
2022/01/26 18:05:18;;;;;;;52.67;27.75;;;;;;;-4.72;82.21;100312.98;1699672;84;21851;-79
2022/01/26 18:22:19;;;;;;;47.35;24.45;;;;;;;-4.78;82.86;100317.31;1699418;84;21249;-79
2022/01/26 18:51:12;;;;;;;41.28;23.27;;;;;;;-4.67;83.53;100311.79;1683076;85;21869;-81
2022/01/26 18:54:18;;;;;;;39.40;23.47;;;;;;;-4.66;83.71;100312.21;1682102;85;21856;-81
2022/01/26 18:57:24;;;;;;;38.58;21.97;;;;;;;-4.65;83.72;100305.92;1683091;85;21359;-80
2022/01/26 19:00:29;;;;;;;44.98;23.47;;;;;;;-4.64;83.87;100305.45;1703382;83;21315;-80
2022/01/26 19:03:36;;;;;;;43.83;24.07;;;;;;;-4.58;84.09;100302.45;1716256;83;21857;-80
2022/01/26 19:06:48;;;;;;;48.45;22.48;;;;;;;-4.55;83.88;100307.63;1714867;83;21353;-81
2022/01/26 19:09:51;;;;;;;44.30;23.98;;;;;;;-4.56;83.82;100303.69;1714888;83;21353;-80
2022/01/26 19:12:58;;;;;;;42.08;22.52;;;;;;;-4.46;84.13;100307.16;1716279;83;21194;-80
2022/01/26 19:16:18;;;;;;;39.65;23.02;;;;;;;-4.33;83.85;100306.48;1716202;83;21866;-80
2022/01/26 19:22:37;;;;;;;42.38;22.10;;;;;;;-4.30;83.29;100302.31;1716283;83;21285;-80
2022/01/26 19:25:30;;;;;;;42.93;24.50;;;;;;;-4.27;83.04;100308.36;1716159;83;21325;-79
2022/01/26 19:28:36;;;;;;;43.52;22.98;;;;;;;-4.24;82.83;100305.52;1716583;83;21325;-79
2022/01/26 19:45:11;;;;;;;37.38;21.35;;;;;;;-4.07;81.84;100305.95;1636207;87;21342;-79
2022/01/26 19:51:44;;;;;;;35.60;20.43;;;;;;;-4.13;81.57;100301.80;1716369;83;21282;-79
2022/01/26 19:54:47;;;;;;;40.23;21.30;;;;;;;-4.13;81.58;100307.63;1715557;83;21305;-79
2022/01/26 19:57:52;;;;;;;33.42;19.00;;;;;;;-4.08;81.62;100304.70;1716418;83;21742;-80
2022/01/26 20:00:59;;;;;;;36.13;19.27;;;;;;;-4.06;81.51;100300.98;1715248;82;21889;-79
2022/01/26 20:03:58;;;;;;;36.35;21.27;;;;;;;-4.03;81.54;100299.49;1716372;83;21818;-79
2022/01/26 20:07:13;;;;;;;36.05;20.23;;;;;;;-4.01;81.48;100305.59;1716305;83;21337;-79
2022/01/26 20:10:13;;;;;;;33.45;19.35;;;;;;;-3.98;81.47;100309.45;1715441;83;21333;-79
2022/01/26 20:13:31;;;;;;;38.53;21.57;;;;;;;-3.99;81.28;100318.42;1714966;83;21274;-79
2022/01/26 20:16:36;;;;;;;37.63;19.57;;;;;;;-4.05;81.18;100314.72;1715035;83;21278;-79
2022/01/26 20:19:42;;;;;;;29.45;17.45;;;;;;;-4.03;81.19;100318.19;1716307;83;21183;-79
2022/01/26 20:22:48;;;;;;;31.70;18.48;;;;;;;-4.01;81.04;100310.08;1716399;83;21301;-79
2022/01/26 20:25:58;;;;;;;40.17;18.23;;;;;;;-4.03;80.99;100310.18;1715081;83;21219;-79
2022/01/26 20:29:00;;;;;;;29.50;17.75;;;;;;;-4.09;80.88;100320.31;1716410;83;21286;-80
2022/01/26 20:32:06;;;;;;;34.00;18.27;;;;;;;-4.15;80.85;100321.04;1716160;83;21187;-79
2022/01/26 20:35:12;;;;;;;36.53;19.48;;;;;;;-4.19;81.09;100318.62;1716323;83;21282;-79
2022/01/26 20:38:17;;;;;;;38.35;21.52;;;;;;;-4.23;81.18;100315.27;1716394;83;21289;-79
2022/01/26 20:41:23;;;;;;;37.73;20.15;;;;;;;-4.21;81.31;100313.84;1715603;83;21349;-79
2022/01/26 20:44:30;;;;;;;43.28;23.12;;;;;;;-4.20;81.44;100324.44;1716250;83;21218;-78
2022/01/26 20:47:37;;;;;;;36.77;20.62;;;;;;;-4.14;81.42;100320.56;1716324;83;21289;-80
2022/01/26 20:50:42;;;;;;;38.30;21.05;;;;;;;-4.10;81.34;100320.80;1716079;83;21179;-80
2022/01/26 20:53:48;;;;;;;40.03;21.42;;;;;;;-4.03;81.28;100322.20;1716300;83;21290;-80
2022/01/26 20:56:53;;;;;;;39.30;22.35;;;;;;;-3.93;81.12;100314.06;1716374;83;21290;-80